Altoona, WI (54720)

9:04 AM CDT on September 03, 2015 (GMT -0500)
Memorial High area | | Change Station
CLOSE
Current Station
Personal Weather Station
Location: Eau Claire, WI
Elevation: 880 ft
Nearby Weather Stations
Active Advisory: Dense Fog Advisory

Elev 880 ft 44.80 °N, 91.48 °W | Updated 1 second ago

Fog
Fog
67.8 °F
Feels Like 67.8 °F
N
2.2
Wind Variable Wind from East
Gusts 8.3 mph

Today
High -- | Low -- °F
--% Chance of Precip.
Yesterday
High -- | Low -- °F
Precip. -- in
6:30 AM 7:39 PM
Waning Gibbous, 70% visible
Pressure 29.95 in
Visibility 3.0 miles
Clouds Overcast 200 ft
Dew Point 68 °F
Humidity 99%
Rainfall 0.00 in
Snow Depth Not available.
UV 1 out of 12
Pollen 9.40 out of 12
Air Quality Not available.
Flu Activity Not available.
SPECI KEAU 031403Z 09009KT 3SM BR OVC002 19/18 A2995 RMK AO2 T01890183
Pressure 29.95 in
Visibility 3.0 miles
Clouds Overcast 200 ft
Dew Point 68 °F
Humidity 99%
Rainfall 0.00 in
Snow Depth Not available.
UV 1 out of 12
Pollen 9.40 out of 12
Air Quality Not available.
Flu Activity Not available.
SPECI KEAU 031403Z 09009KT 3SM BR OVC002 19/18 A2995 RMK AO2 T01890183

10-Day Weather Forecast

×

Almanac

Astronomy

Sep. 03, 2015 Rise Set
Actual Time
Civil Twilight
Nautical Twilight
Astronomical Twilight
Moon
Length of Visible Light
Length of Day
Tomorrow will be .
, % of the Moon is Illuminated

Today's Extremes

State Highs State Lows

Community

WunderPhotos

Upload Photos

1,851,955 photos uploaded!

WunderBlogs® & News

Nearby

Air Quality

  Air Quality AQ Index Pollutant
Not available.

Snow Depth

Station Depth Elevation

Earthquake Activity

City Distance Mag. Time & Date
Minimum magnitude displayed is 2.5.

Coastal Water Temperatures

Place Temperature

Stations

Nearby Weather Stations

Station Location Temp. Windchill Dew Point Humidity Wind Precip. Elev Updated Type
                   
Dense Fog Advisory
Statement as of 8:59 AM CDT on September 03, 2015

... Dense fog advisory will expire at 9 am CDT this morning...

The dense fog is beginning to lift this morning and visibility
will continue to improve through the remainder of the morning.